createdAt,value
2017-12-04T00:00:45.524Z,101824
2017-12-04T00:03:13.644Z,101831
2017-12-04T00:05:41.732Z,101821
2017-12-04T00:08:10.688Z,101824
2017-12-04T00:10:38.765Z,101823
2017-12-04T00:13:06.928Z,101830
2017-12-04T00:15:35.095Z,101833
2017-12-04T00:18:03.228Z,101839
2017-12-04T00:20:31.596Z,101837
2017-12-04T00:22:59.720Z,101840
2017-12-04T00:25:30.859Z,101832
2017-12-04T00:27:58.951Z,101830
2017-12-04T00:30:27.111Z,101835
2017-12-04T00:32:55.196Z,101833
2017-12-04T00:35:23.360Z,101836
2017-12-04T00:37:51.547Z,101836
2017-12-04T00:40:19.630Z,101840
2017-12-04T00:42:47.784Z,101835
2017-12-04T00:45:15.921Z,101846
2017-12-04T00:47:44.219Z,101834
2017-12-04T00:50:12.365Z,101842
2017-12-04T00:52:40.583Z,101823
2017-12-04T00:55:08.827Z,101841
2017-12-04T00:57:36.944Z,101839
2017-12-04T01:00:05.582Z,101834
2017-12-04T01:02:33.702Z,101835
2017-12-04T01:05:01.860Z,101835
2017-12-04T01:07:29.974Z,101840
2017-12-04T01:09:58.291Z,101839
2017-12-04T01:12:26.400Z,101835
2017-12-04T01:14:54.486Z,101834
2017-12-04T01:17:23.415Z,101831
2017-12-04T01:19:51.532Z,101850
2017-12-04T01:22:19.692Z,101842
2017-12-04T01:24:47.809Z,101846
2017-12-04T01:27:17.162Z,101841
2017-12-04T01:29:45.255Z,101847
2017-12-04T01:32:13.447Z,101844
2017-12-04T01:34:41.586Z,101848
2017-12-04T01:37:10.440Z,101849
2017-12-04T01:39:38.523Z,101857
2017-12-04T01:42:06.683Z,101857
2017-12-04T01:44:34.771Z,101859
2017-12-04T01:47:02.908Z,101863
2017-12-04T01:49:31.001Z,101873
2017-12-04T01:51:59.176Z,101860
2017-12-04T01:54:27.383Z,101861
2017-12-04T01:56:55.480Z,101875
2017-12-04T01:59:23.643Z,101873
2017-12-04T02:01:52.659Z,101872
2017-12-04T02:04:21.884Z,101859
2017-12-04T02:06:50.052Z,101870
2017-12-04T02:09:18.167Z,101877
2017-12-04T02:11:47.431Z,101887
2017-12-04T02:14:15.603Z,101887
2017-12-04T02:16:43.696Z,101885
2017-12-04T02:19:11.827Z,101885
2017-12-04T02:21:40.832Z,101881
2017-12-04T02:24:09.000Z,101883
2017-12-04T02:26:37.112Z,101875
2017-12-04T02:29:06.113Z,101877
2017-12-04T02:31:34.323Z,101879
2017-12-04T02:34:02.417Z,101860
2017-12-04T02:36:31.315Z,101851
2017-12-04T02:38:59.475Z,101861
2017-12-04T02:41:28.367Z,101863
2017-12-04T02:43:57.240Z,101863
2017-12-04T02:46:25.551Z,101870
2017-12-04T02:48:53.640Z,101875
2017-12-04T02:51:21.961Z,101857
2017-12-04T02:53:50.172Z,101846
2017-12-04T02:56:18.321Z,101861
2017-12-04T02:58:46.412Z,101855
2017-12-04T03:01:14.576Z,101859
2017-12-04T03:03:43.447Z,101861
2017-12-04T03:06:11.600Z,101861
2017-12-04T03:08:39.800Z,101854
2017-12-04T03:11:07.888Z,101860
2017-12-04T03:13:36.740Z,101869
2017-12-04T03:16:04.943Z,101857
2017-12-04T03:18:33.075Z,101855
2017-12-04T03:21:01.255Z,101861
2017-12-04T03:23:29.372Z,101861
2017-12-04T03:25:57.480Z,101857
2017-12-04T03:28:25.624Z,101875
2017-12-04T03:30:53.701Z,101864
2017-12-04T03:33:22.660Z,101884
2017-12-04T03:35:50.964Z,101876
2017-12-04T03:38:19.457Z,101879
2017-12-04T03:40:47.591Z,101879
2017-12-04T03:43:15.987Z,101871
2017-12-04T03:45:44.089Z,101876
2017-12-04T03:48:12.343Z,101869
2017-12-04T03:50:41.315Z,101873
2017-12-04T03:53:09.419Z,101881
2017-12-04T03:55:38.443Z,101876
2017-12-04T03:58:06.672Z,101873
2017-12-04T04:00:34.817Z,101877
2017-12-04T04:03:03.372Z,101871
2017-12-04T04:05:31.600Z,101873
2017-12-04T04:07:59.688Z,101864
2017-12-04T04:10:28.827Z,101862
2017-12-04T04:12:56.903Z,101858
2017-12-04T04:15:25.007Z,101860
2017-12-04T04:17:53.155Z,101854
2017-12-04T04:20:30.297Z,101859
2017-12-04T04:22:58.413Z,101857
2017-12-04T04:25:26.636Z,101858
2017-12-04T04:27:55.508Z,101870
2017-12-04T04:30:23.656Z,101876
2017-12-04T04:32:53.701Z,101879
2017-12-04T04:35:21.843Z,101891
2017-12-04T04:37:50.025Z,101879
2017-12-04T04:40:18.231Z,101879
2017-12-04T04:42:46.450Z,101878
2017-12-04T04:45:14.539Z,101870
2017-12-04T04:47:43.595Z,101877
2017-12-04T04:50:11.751Z,101870
2017-12-04T04:52:41.054Z,101881
2017-12-04T04:55:09.196Z,101878
2017-12-04T04:57:37.777Z,101882
2017-12-04T05:00:06.424Z,101880
2017-12-04T05:02:34.495Z,101885
2017-12-04T05:05:02.572Z,101882
2017-12-04T05:07:30.820Z,101890
2017-12-04T05:09:59.048Z,101881
2017-12-04T05:12:27.446Z,101884
2017-12-04T05:14:55.636Z,101884
2017-12-04T05:17:23.809Z,101878
2017-12-04T05:19:52.649Z,101880
2017-12-04T05:22:20.776Z,101893
2017-12-04T05:24:48.925Z,101888
2017-12-04T05:27:17.145Z,101890
2017-12-04T05:29:45.321Z,101886
2017-12-04T05:32:13.448Z,101892
2017-12-04T05:34:41.587Z,101886
2017-12-04T05:37:09.803Z,101879
2017-12-04T05:39:37.895Z,101880
2017-12-04T05:42:06.051Z,101892
2017-12-04T05:44:34.146Z,101883
2017-12-04T05:47:02.274Z,101888
2017-12-04T05:49:30.410Z,101888
2017-12-04T05:51:58.504Z,101895
2017-12-04T05:54:26.772Z,101892
2017-12-04T05:56:55.149Z,101893
2017-12-04T05:59:23.528Z,101900
2017-12-04T06:01:51.805Z,101895
2017-12-04T06:04:20.168Z,101902
2017-12-04T06:06:48.340Z,101903
2017-12-04T06:09:16.415Z,101913
2017-12-04T06:11:44.649Z,101911
2017-12-04T06:14:13.028Z,101911
2017-12-04T06:16:41.446Z,101918
2017-12-04T06:19:09.763Z,101919
2017-12-04T06:21:37.835Z,101920
2017-12-04T06:24:05.970Z,101922
2017-12-04T06:26:34.075Z,101920
2017-12-04T06:29:02.233Z,101925
2017-12-04T06:31:30.343Z,101932
2017-12-04T06:33:58.452Z,101939
2017-12-04T06:36:27.300Z,101936
2017-12-04T06:38:55.640Z,101944
2017-12-04T06:41:23.759Z,101945
2017-12-04T06:43:51.852Z,101938
2017-12-04T06:46:20.742Z,101954
2017-12-04T06:48:48.894Z,101959
2017-12-04T06:51:16.975Z,101958
2017-12-04T06:53:45.083Z,101953
2017-12-04T06:56:13.526Z,101952
2017-12-04T06:58:41.658Z,101965
2017-12-04T07:01:09.776Z,101968
2017-12-04T07:03:37.895Z,101970
2017-12-04T07:06:06.016Z,101974
2017-12-04T07:08:34.124Z,101977
2017-12-04T07:11:02.268Z,101970
2017-12-04T07:13:30.365Z,101969
2017-12-04T07:15:59.224Z,101977
2017-12-04T07:18:27.323Z,101977
2017-12-04T07:20:56.186Z,101994
2017-12-04T07:23:24.310Z,102000
2017-12-04T07:25:52.395Z,102002
2017-12-04T07:28:20.482Z,101999
2017-12-04T07:30:48.609Z,102005
2017-12-04T07:33:16.776Z,102002
2017-12-04T07:35:44.867Z,102006
2017-12-04T07:38:12.988Z,102002
2017-12-04T07:40:41.096Z,102003
2017-12-04T07:43:10.223Z,102011
2017-12-04T07:45:38.363Z,101997
2017-12-04T07:48:07.260Z,101999
2017-12-04T07:50:35.363Z,101996
2017-12-04T07:53:03.456Z,101999
2017-12-04T07:55:31.585Z,102004
2017-12-04T07:57:59.690Z,102013
2017-12-04T08:00:27.900Z,102013
2017-12-04T08:02:56.027Z,102017
2017-12-04T08:05:24.115Z,102017
2017-12-04T08:07:52.236Z,102039
2017-12-04T08:10:20.392Z,102042
2017-12-04T08:12:48.485Z,102042
2017-12-04T08:15:17.416Z,102040
2017-12-04T08:17:45.548Z,102043
2017-12-04T08:20:14.404Z,102045
2017-12-04T08:22:42.512Z,102056
2017-12-04T08:25:11.408Z,102038
2017-12-04T08:27:39.681Z,102029
2017-12-04T08:30:08.529Z,102029
2017-12-04T08:32:36.616Z,102032
2017-12-04T08:35:04.888Z,102031
2017-12-04T08:37:32.976Z,102040
2017-12-04T08:40:01.092Z,102050
2017-12-04T08:42:29.172Z,102034
2017-12-04T08:44:58.224Z,102038
2017-12-04T08:47:26.344Z,102047
2017-12-04T08:49:54.446Z,102050
2017-12-04T08:52:22.525Z,102052
2017-12-04T08:54:50.616Z,102043
2017-12-04T08:57:18.765Z,102059
2017-12-04T08:59:46.928Z,102059
2017-12-04T09:02:15.108Z,102058
2017-12-04T09:04:43.245Z,102058
2017-12-04T09:09:44.168Z,102067
2017-12-04T09:12:12.366Z,102059
2017-12-04T09:14:41.252Z,102077
2017-12-04T09:17:09.447Z,102074
2017-12-04T09:19:37.525Z,102071
2017-12-04T09:22:05.627Z,102079
2017-12-04T09:24:33.768Z,102075
2017-12-04T09:27:01.867Z,102084
2017-12-04T09:29:29.992Z,102083
2017-12-04T09:31:58.189Z,102094
2017-12-04T09:34:26.337Z,102092
2017-12-04T09:36:54.459Z,102096
2017-12-04T09:39:22.560Z,102095
2017-12-04T09:41:50.692Z,102100
2017-12-04T09:44:20.934Z,102103
2017-12-04T09:46:49.056Z,102093
2017-12-04T09:49:17.152Z,102103
2017-12-04T09:51:45.270Z,102101
2017-12-04T09:54:15.673Z,102104
2017-12-04T09:56:43.864Z,102102
2017-12-04T09:59:15.742Z,102112
2017-12-04T10:01:46.034Z,102115
2017-12-04T10:04:15.624Z,102126
2017-12-04T10:06:44.569Z,102129
2017-12-04T10:09:12.985Z,102118
2017-12-04T10:11:41.130Z,102118
2017-12-04T10:14:09.285Z,102112
2017-12-04T10:16:40.384Z,102126
2017-12-04T10:19:09.381Z,102116
2017-12-04T10:21:52.378Z,102125
2017-12-04T10:24:20.521Z,102118
2017-12-04T10:26:49.452Z,102130
2017-12-04T10:29:18.635Z,102127
2017-12-04T10:31:48.007Z,102117
2017-12-04T10:34:16.861Z,102139
2017-12-04T10:36:44.953Z,102121
2017-12-04T10:39:13.087Z,102127
2017-12-04T10:41:41.228Z,102120
2017-12-04T10:44:09.337Z,102121
2017-12-04T10:46:37.443Z,102125
2017-12-04T10:49:05.591Z,102132
2017-12-04T10:51:33.670Z,102131
2017-12-04T10:54:02.482Z,102139
2017-12-04T10:56:30.660Z,102140
2017-12-04T10:58:59.536Z,102133
2017-12-04T11:01:27.689Z,102139
2017-12-04T11:03:55.768Z,102140
2017-12-04T11:06:23.928Z,102134
2017-12-04T11:08:52.044Z,102137
2017-12-04T11:11:20.176Z,102137
2017-12-04T11:13:48.333Z,102146
2017-12-04T11:16:16.433Z,102141
2017-12-04T11:18:44.524Z,102141
2017-12-04T11:21:12.623Z,102131
2017-12-04T11:23:41.526Z,102144
2017-12-04T11:26:10.373Z,102138
2017-12-04T11:28:38.490Z,102134
2017-12-04T11:31:06.575Z,102131
2017-12-04T11:33:34.683Z,102145
2017-12-04T11:36:02.887Z,102147
2017-12-04T11:38:31.796Z,102146
2017-12-04T11:41:00.663Z,102156
2017-12-04T11:43:28.779Z,102145
2017-12-04T11:45:56.901Z,102154
2017-12-04T11:48:25.049Z,102147
2017-12-04T11:50:53.184Z,102167
2017-12-04T11:53:21.327Z,102154
2017-12-04T11:55:49.486Z,102155
2017-12-04T11:58:17.645Z,102154
2017-12-04T12:00:45.782Z,102153
2017-12-04T12:03:13.872Z,102161
2017-12-04T12:05:42.087Z,102157
2017-12-04T12:08:10.176Z,102157
2017-12-04T12:10:39.072Z,102165
2017-12-04T12:13:07.951Z,102163
2017-12-04T12:15:36.101Z,102159
2017-12-04T12:18:04.183Z,102168
2017-12-04T12:20:32.332Z,102154
2017-12-04T12:23:00.440Z,102156
2017-12-04T12:25:28.693Z,102150
2017-12-04T12:27:56.801Z,102159
2017-12-04T12:30:24.952Z,102155
2017-12-04T12:32:53.043Z,102167
2017-12-04T12:35:21.966Z,102162
2017-12-04T12:37:50.088Z,102171
2017-12-04T12:40:18.270Z,102157
2017-12-04T12:42:46.372Z,102151
2017-12-04T12:45:16.198Z,102158
2017-12-04T12:47:44.299Z,102145
2017-12-04T12:50:12.387Z,102142
2017-12-04T12:52:40.514Z,102141
2017-12-04T12:55:08.619Z,102144
2017-12-04T12:57:36.766Z,102148
2017-12-04T13:00:04.852Z,102150
2017-12-04T13:02:32.976Z,102147
2017-12-04T13:05:01.097Z,102153
2017-12-04T13:07:29.292Z,102147
2017-12-04T13:09:57.413Z,102147
2017-12-04T13:12:26.317Z,102141
2017-12-04T13:14:54.424Z,102136
2017-12-04T13:17:22.531Z,102143
2017-12-04T13:19:50.707Z,102144
2017-12-04T13:22:19.589Z,102138
2017-12-04T13:24:47.765Z,102147
2017-12-04T13:27:15.857Z,102136
2017-12-04T13:29:44.021Z,102153
2017-12-04T13:32:30.806Z,102143
2017-12-04T13:35:16.565Z,102125
2017-12-04T13:37:44.762Z,102143
2017-12-04T13:40:12.905Z,102135
2017-12-04T13:42:41.072Z,102132
2017-12-04T13:45:09.219Z,102118
2017-12-04T13:47:38.204Z,102134
2017-12-04T13:50:07.043Z,102130
2017-12-04T13:52:35.185Z,102130
2017-12-04T13:55:03.283Z,102121
2017-12-04T13:57:31.430Z,102132
2017-12-04T13:59:59.598Z,102140
2017-12-04T14:02:28.471Z,102148
2017-12-04T14:04:56.635Z,102149
2017-12-04T14:07:24.761Z,102150
2017-12-04T14:09:53.324Z,102166
2017-12-04T14:12:22.172Z,102162
2017-12-04T14:14:50.340Z,102160
2017-12-04T14:17:18.493Z,102159
2017-12-04T14:19:46.599Z,102170
2017-12-04T14:22:14.740Z,102169
2017-12-04T14:24:42.855Z,102175
2017-12-04T14:27:10.997Z,102182
2017-12-04T14:29:39.102Z,102180
2017-12-04T14:32:07.228Z,102180
2017-12-04T14:34:35.381Z,102178
2017-12-04T14:37:03.463Z,102181
2017-12-04T14:39:33.387Z,102197
2017-12-04T14:42:01.528Z,102195
2017-12-04T14:44:29.603Z,102199
2017-12-04T14:46:57.731Z,102192
2017-12-04T14:49:25.907Z,102196
2017-12-04T14:51:53.952Z,102203
2017-12-04T14:54:22.064Z,102212
2017-12-04T14:56:50.176Z,102206
2017-12-04T14:59:18.325Z,102210
2017-12-04T15:01:46.815Z,102216
2017-12-04T15:04:15.730Z,102216
2017-12-04T15:06:43.877Z,102211
2017-12-04T15:09:11.994Z,102218
2017-12-04T15:11:40.111Z,102208
2017-12-04T15:14:08.207Z,102213
2017-12-04T15:16:37.189Z,102218
2017-12-04T15:19:06.076Z,102214
2017-12-04T15:21:34.386Z,102224
2017-12-04T15:24:04.229Z,102228
2017-12-04T15:26:32.308Z,102232
2017-12-04T15:29:00.430Z,102235
2017-12-04T15:31:28.516Z,102230
2017-12-04T15:33:56.681Z,102234
2017-12-04T15:36:24.863Z,102242
2017-12-04T15:38:53.007Z,102240
2017-12-04T15:41:21.911Z,102249
2017-12-04T15:43:51.057Z,102238
2017-12-04T15:46:19.316Z,102239
2017-12-04T15:48:47.487Z,102246
2017-12-04T15:51:15.603Z,102242
2017-12-04T15:53:44.658Z,102250
2017-12-04T15:56:12.788Z,102251
2017-12-04T15:58:41.653Z,102251
2017-12-04T16:01:09.848Z,102260
2017-12-04T16:03:37.983Z,102255
2017-12-04T16:06:06.161Z,102260
2017-12-04T16:08:34.341Z,102263
2017-12-04T16:11:02.444Z,102265
2017-12-04T16:13:30.576Z,102272
2017-12-04T16:15:58.700Z,102265
2017-12-04T16:18:27.600Z,102272
2017-12-04T16:20:55.688Z,102277
2017-12-04T16:23:23.827Z,102274
2017-12-04T16:25:51.991Z,102274
2017-12-04T16:28:20.123Z,102272
2017-12-04T16:30:48.228Z,102276
2017-12-04T16:33:16.370Z,102278
2017-12-04T16:35:45.419Z,102274
2017-12-04T16:38:14.313Z,102279
2017-12-04T16:40:43.263Z,102283
2017-12-04T16:43:11.376Z,102289
2017-12-04T16:45:40.273Z,102297
2017-12-04T16:48:08.405Z,102296
2017-12-04T16:50:36.518Z,102297
2017-12-04T16:53:05.432Z,102303
2017-12-04T16:55:33.532Z,102302
2017-12-04T16:58:01.671Z,102303
2017-12-04T17:00:29.793Z,102308
2017-12-04T17:02:57.872Z,102324
2017-12-04T17:05:25.995Z,102316
2017-12-04T17:07:54.207Z,102326
2017-12-04T17:10:22.288Z,102326
2017-12-04T17:12:50.450Z,102331
2017-12-04T17:15:18.528Z,102326
2017-12-04T17:17:46.648Z,102323
2017-12-04T17:20:14.744Z,102338
2017-12-04T17:22:46.549Z,102356
2017-12-04T17:25:14.664Z,102350
2017-12-04T17:27:42.984Z,102350
2017-12-04T17:30:11.105Z,102353
2017-12-04T17:32:40.260Z,102358
2017-12-04T17:35:08.383Z,102354
2017-12-04T17:37:36.472Z,102368
2017-12-04T17:40:05.624Z,102369
2017-12-04T17:42:34.542Z,102375
2017-12-04T17:45:02.648Z,102372
2017-12-04T17:47:30.806Z,102375
2017-12-04T17:49:58.962Z,102377
2017-12-04T17:52:27.129Z,102386
2017-12-04T17:54:55.298Z,102374
2017-12-04T17:57:23.440Z,102381
2017-12-04T17:59:51.580Z,102381
2017-12-04T18:02:19.676Z,102394
2017-12-04T18:04:47.797Z,102386
2017-12-04T18:07:15.921Z,102401
2017-12-04T18:09:44.064Z,102404
2017-12-04T18:12:12.152Z,102406
2017-12-04T18:14:40.300Z,102410
2017-12-04T18:17:08.397Z,102398
2017-12-04T18:19:36.506Z,102398
2017-12-04T18:22:04.633Z,102409
2017-12-04T18:24:33.181Z,102416
2017-12-04T18:27:03.298Z,102408
2017-12-04T18:29:31.376Z,102411
2017-12-04T18:31:59.512Z,102400
2017-12-04T18:34:27.843Z,102392
2017-12-04T18:36:59.895Z,102400
2017-12-04T18:39:27.998Z,102409
2017-12-04T18:41:56.160Z,102412
2017-12-04T18:44:25.115Z,102413
2017-12-04T18:46:53.276Z,102408
2017-12-04T18:49:21.378Z,102418
2017-12-04T18:51:49.492Z,102426
2017-12-04T18:54:17.765Z,102434
2017-12-04T18:56:45.872Z,102434
2017-12-04T18:59:18.739Z,102427
2017-12-04T19:01:46.825Z,102438
2017-12-04T19:04:15.014Z,102425
2017-12-04T19:06:43.201Z,102436
2017-12-04T19:09:11.346Z,102446
2017-12-04T19:11:39.482Z,102433
2017-12-04T19:14:07.639Z,102443
2017-12-04T19:16:35.764Z,102428
2017-12-04T19:19:03.885Z,102437
2017-12-04T19:21:32.011Z,102445
2017-12-04T19:24:00.089Z,102451
2017-12-04T19:26:28.213Z,102447
2017-12-04T19:28:57.414Z,102432
2017-12-04T19:31:25.586Z,102448
2017-12-04T19:33:53.713Z,102449
2017-12-04T19:36:22.593Z,102455
2017-12-04T19:38:50.741Z,102444
2017-12-04T19:41:18.872Z,102444
2017-12-04T19:43:46.993Z,102450
2017-12-04T19:46:15.085Z,102447
2017-12-04T19:48:43.245Z,102447
2017-12-04T19:51:11.357Z,102458
2017-12-04T19:53:39.458Z,102463
2017-12-04T19:56:07.659Z,102453
2017-12-04T19:58:35.889Z,102465
2017-12-04T20:01:05.058Z,102476
2017-12-04T20:03:33.967Z,102477
2017-12-04T20:06:02.114Z,102469
2017-12-04T20:08:30.231Z,102472
2017-12-04T20:10:58.370Z,102478
2017-12-04T20:13:27.272Z,102483
2017-12-04T20:15:55.419Z,102476
2017-12-04T20:18:23.568Z,102470
2017-12-04T20:20:51.776Z,102483
2017-12-04T20:23:21.431Z,102481
2017-12-04T20:25:49.601Z,102485
2017-12-04T20:28:18.689Z,102482
2017-12-04T20:30:46.772Z,102481
2017-12-04T20:33:15.093Z,102486
2017-12-04T20:35:43.173Z,102483
2017-12-04T20:38:11.404Z,102491
2017-12-04T20:40:39.544Z,102492
2017-12-04T20:43:07.795Z,102496
2017-12-04T20:45:36.721Z,102486
2017-12-04T20:48:05.816Z,102505
2017-12-04T20:50:34.010Z,102510
2017-12-04T20:53:03.092Z,102507
2017-12-04T20:55:31.273Z,102506
2017-12-04T20:57:59.417Z,102506
2017-12-04T21:00:28.621Z,102513
2017-12-04T21:02:57.577Z,102511
2017-12-04T21:05:25.772Z,102509
2017-12-04T21:07:53.945Z,102513
2017-12-04T21:10:39.735Z,102502
2017-12-04T21:16:39.723Z,102516
2017-12-04T21:19:08.053Z,102514
2017-12-04T21:21:36.172Z,102517
2017-12-04T21:24:05.219Z,102524
2017-12-04T21:26:33.473Z,102524
2017-12-04T21:29:01.773Z,102516
2017-12-04T21:31:29.999Z,102526
2017-12-04T21:33:58.252Z,102545
2017-12-04T21:36:26.365Z,102543
2017-12-04T21:38:54.719Z,102549
2017-12-04T21:41:23.003Z,102545
2017-12-04T21:43:53.910Z,102542
2017-12-04T21:46:23.007Z,102541
2017-12-04T21:48:51.293Z,102551
2017-12-04T21:51:20.459Z,102550
2017-12-04T21:53:50.395Z,102545
2017-12-04T21:56:18.633Z,102556
2017-12-04T21:58:46.719Z,102559
2017-12-04T22:01:15.098Z,102554
2017-12-04T22:03:43.303Z,102557
2017-12-04T22:06:11.520Z,102565
2017-12-04T22:08:39.736Z,102560
2017-12-04T22:11:07.912Z,102571
2017-12-04T22:13:36.907Z,102574
2017-12-04T22:16:05.168Z,102562
2017-12-04T22:18:33.374Z,102570
2017-12-04T22:21:01.494Z,102581
2017-12-04T22:23:29.657Z,102572
2017-12-04T22:25:57.927Z,102574
2017-12-04T22:28:26.070Z,102577
2017-12-04T22:30:54.260Z,102585
2017-12-04T22:33:22.506Z,102587
2017-12-04T22:35:51.401Z,102595
2017-12-04T22:38:19.612Z,102591
2017-12-04T22:40:48.560Z,102593
2017-12-04T22:43:17.462Z,102593
2017-12-04T22:45:46.328Z,102590
2017-12-04T22:48:14.457Z,102584
2017-12-04T22:50:42.624Z,102584
2017-12-04T22:53:10.780Z,102588
2017-12-04T22:55:38.901Z,102584
2017-12-04T22:58:07.040Z,102582
2017-12-04T23:00:35.164Z,102577
2017-12-04T23:03:03.331Z,102582
2017-12-04T23:05:33.302Z,102591
2017-12-04T23:08:01.391Z,102587
2017-12-04T23:10:29.507Z,102592
2017-12-04T23:12:58.442Z,102598
2017-12-04T23:15:26.560Z,102606
2017-12-04T23:17:54.648Z,102596
2017-12-04T23:20:22.760Z,102603
2017-12-04T23:22:50.987Z,102607
2017-12-04T23:25:19.191Z,102616
2017-12-04T23:27:47.439Z,102602
2017-12-04T23:30:15.535Z,102610
2017-12-04T23:32:43.676Z,102612
2017-12-04T23:35:11.794Z,102619
2017-12-04T23:37:39.924Z,102615
2017-12-04T23:40:08.096Z,102612
2017-12-04T23:42:36.212Z,102621
2017-12-04T23:45:04.363Z,102619
2017-12-04T23:47:33.343Z,102617
2017-12-04T23:50:01.429Z,102623
2017-12-04T23:52:30.364Z,102620
2017-12-04T23:55:03.276Z,102618
2017-12-04T23:57:31.350Z,102624
